createdAt,value
2019-04-05T00:00:06.924Z,40.47
2019-04-05T00:02:37.010Z,45.17
2019-04-05T00:05:08.250Z,45.20
2019-04-05T00:07:38.374Z,46.27
2019-04-05T00:10:08.967Z,42.87
2019-04-05T00:12:39.146Z,41.07
2019-04-05T00:15:15.536Z,46.97
2019-04-05T00:17:41.234Z,54.87
2019-04-05T00:20:11.447Z,45.00
2019-04-05T00:22:41.571Z,42.87
2019-04-05T00:25:12.670Z,48.40
2019-04-05T00:27:42.769Z,46.83
2019-04-05T00:30:13.200Z,47.47
2019-04-05T00:32:43.467Z,48.17
2019-04-05T00:35:13.620Z,50.57
2019-04-05T00:37:43.804Z,55.67
2019-04-05T00:40:14.031Z,49.90
2019-04-05T00:42:44.122Z,51.57
2019-04-05T00:45:27.190Z,51.97
2019-04-05T00:47:46.022Z,54.30
2019-04-05T00:50:15.954Z,51.13
2019-04-05T00:52:46.036Z,51.30
2019-04-05T00:55:16.164Z,56.93
2019-04-05T00:57:49.365Z,50.13
2019-04-05T01:00:18.283Z,49.97
2019-04-05T01:02:48.418Z,47.50
2019-04-05T01:05:18.539Z,51.60
2019-04-05T01:07:48.645Z,55.97
2019-04-05T01:10:18.735Z,52.03
2019-04-05T01:12:48.856Z,48.07
2019-04-05T01:15:18.955Z,45.20
2019-04-05T01:17:49.345Z,46.33
2019-04-05T01:20:19.590Z,47.90
2019-04-05T01:22:50.037Z,43.77
2019-04-05T01:25:21.305Z,46.23
2019-04-05T01:27:51.946Z,44.83
2019-04-05T01:30:22.051Z,46.50
2019-04-05T01:32:52.221Z,46.23
2019-04-05T01:35:22.359Z,46.20
2019-04-05T01:37:52.771Z,37.40
2019-04-05T01:40:24.354Z,41.27
2019-04-05T01:42:54.560Z,40.67
2019-04-05T01:45:24.611Z,44.90
2019-04-05T01:47:54.733Z,40.03
2019-04-05T01:50:25.022Z,41.23
2019-04-05T01:52:55.168Z,46.70
2019-04-05T01:55:25.417Z,41.97
2019-04-05T01:57:55.636Z,50.43
2019-04-05T02:00:25.918Z,41.97
2019-04-05T02:02:56.013Z,42.47
2019-04-05T02:05:26.676Z,45.43
2019-04-05T02:07:56.817Z,48.43
2019-04-05T02:10:26.879Z,49.40
2019-04-05T02:12:57.181Z,53.27
2019-04-05T02:15:28.529Z,49.47
2019-04-05T02:17:59.103Z,53.57
2019-04-05T02:20:29.257Z,51.90
2019-04-05T02:22:59.592Z,49.23
2019-04-05T02:25:29.692Z,54.80
2019-04-05T02:28:00.757Z,52.37
2019-04-05T02:30:30.919Z,56.40
2019-04-05T02:33:01.200Z,55.20
2019-04-05T02:35:31.332Z,60.97
2019-04-05T02:38:01.460Z,65.50
2019-04-05T02:40:32.453Z,69.40
2019-04-05T02:43:03.525Z,64.57
2019-04-05T02:45:35.134Z,68.33
2019-04-05T02:48:06.361Z,69.73
2019-04-05T02:50:38.735Z,63.03
2019-04-05T02:53:10.574Z,61.50
2019-04-05T02:55:42.037Z,62.97
2019-04-05T02:58:13.498Z,66.23
2019-04-05T03:00:44.178Z,65.53
2019-04-05T03:03:14.384Z,67.00
2019-04-05T03:05:45.619Z,74.80
2019-04-05T03:08:16.216Z,65.80
2019-04-05T03:11:00.849Z,69.67
2019-04-05T03:13:34.310Z,70.13
2019-04-05T03:16:07.633Z,73.07
2019-04-05T03:18:40.412Z,68.33
2019-04-05T03:21:11.186Z,70.17
2019-04-05T03:23:43.712Z,73.03
2019-04-05T03:26:17.373Z,74.07
2019-04-05T03:28:49.091Z,70.90
2019-04-05T03:31:24.515Z,70.17
2019-04-05T03:33:51.283Z,67.63
2019-04-05T03:36:21.587Z,72.77
2019-04-05T03:38:52.659Z,65.33
2019-04-05T03:41:23.973Z,69.47
2019-04-05T03:43:54.107Z,69.07
2019-04-05T03:46:24.237Z,73.90
2019-04-05T03:48:54.598Z,67.60
2019-04-05T03:51:24.976Z,70.57
2019-04-05T03:53:55.466Z,71.47
2019-04-05T03:56:25.703Z,66.53
2019-04-05T03:58:55.917Z,67.80
2019-04-05T04:01:26.230Z,66.40
2019-04-05T04:03:56.322Z,61.57
2019-04-05T04:06:26.546Z,60.73
2019-04-05T04:08:56.906Z,60.33
2019-04-05T04:11:27.048Z,57.90
2019-04-05T04:13:57.210Z,59.60
2019-04-05T04:16:27.874Z,62.77
2019-04-05T04:18:58.020Z,55.77
2019-04-05T04:21:37.129Z,56.30
2019-04-05T04:24:08.270Z,66.63
2019-04-05T04:26:38.313Z,54.43
2019-04-05T04:29:08.635Z,56.23
2019-04-05T04:31:38.872Z,57.73
2019-04-05T04:34:08.972Z,57.03
2019-04-05T04:36:39.100Z,61.23
2019-04-05T04:39:09.202Z,53.70
2019-04-05T04:41:39.258Z,56.90
2019-04-05T04:44:09.961Z,57.07
2019-04-05T04:46:40.107Z,48.77
2019-04-05T04:49:10.879Z,54.30
2019-04-05T04:51:41.364Z,56.47
2019-04-05T04:54:11.601Z,53.57
2019-04-05T04:56:42.044Z,52.17
2019-04-05T04:59:12.189Z,57.17
2019-04-05T05:01:42.295Z,57.73
2019-04-05T05:04:12.701Z,59.97
2019-04-05T05:06:42.847Z,50.43
2019-04-05T05:09:12.955Z,58.50
2019-04-05T05:11:43.055Z,54.10
2019-04-05T05:14:13.037Z,58.70
2019-04-05T05:16:43.087Z,57.87
2019-04-05T05:19:13.241Z,59.37
2019-04-05T05:21:43.305Z,55.13
2019-04-05T05:24:13.462Z,54.53
2019-04-05T05:26:43.533Z,54.43
2019-04-05T05:29:13.593Z,52.93
2019-04-05T05:31:43.871Z,59.20
2019-04-05T05:34:14.126Z,60.67
2019-04-05T05:36:44.208Z,57.67
2019-04-05T05:39:14.308Z,57.33
2019-04-05T05:41:44.309Z,59.53
2019-04-05T05:44:14.370Z,64.17
2019-04-05T05:46:44.439Z,57.13
2019-04-05T05:49:14.493Z,56.63
2019-04-05T05:51:44.792Z,59.33
2019-04-05T05:54:14.952Z,57.40
2019-04-05T05:56:45.061Z,52.07
2019-04-05T05:59:15.088Z,54.13
2019-04-05T06:01:45.119Z,75.92
2019-04-05T06:04:15.253Z,59.40
2019-04-05T06:06:45.317Z,59.33
2019-04-05T06:09:15.389Z,58.93
2019-04-05T06:11:45.415Z,59.70
2019-04-05T06:14:15.551Z,58.30
2019-04-05T06:16:46.726Z,58.10
2019-04-05T06:19:16.915Z,57.00
2019-04-05T06:21:46.969Z,55.37
2019-04-05T06:24:16.858Z,69.60
2019-04-05T06:26:46.876Z,64.07
2019-04-05T06:29:16.947Z,61.53
2019-04-05T06:31:46.989Z,65.17
2019-04-05T06:34:17.094Z,65.20
2019-04-05T06:36:47.145Z,59.93
2019-04-05T06:39:17.218Z,60.83
2019-04-05T06:41:47.261Z,56.37
2019-04-05T06:44:17.307Z,60.17
2019-04-05T06:46:47.347Z,62.30
2019-04-05T06:49:17.488Z,62.17
2019-04-05T06:51:47.513Z,61.40
2019-04-05T06:54:17.605Z,60.30
2019-04-05T06:56:47.670Z,69.37
2019-04-05T06:59:19.503Z,67.20
2019-04-05T07:01:49.562Z,66.20
2019-04-05T07:04:19.655Z,71.57
2019-04-05T07:06:49.714Z,65.53
2019-04-05T07:09:19.856Z,66.13
2019-04-05T07:11:49.906Z,70.33
2019-04-05T07:14:20.030Z,75.10
2019-04-05T07:16:50.064Z,72.87
2019-04-05T07:19:20.110Z,79.17
2019-04-05T07:21:50.246Z,73.17
2019-04-05T07:24:20.322Z,79.57
2019-04-05T07:26:50.684Z,67.00
2019-04-05T07:29:20.774Z,75.90
2019-04-05T07:31:50.871Z,77.70
2019-04-05T07:34:20.940Z,71.03
2019-04-05T07:36:50.987Z,69.80
2019-04-05T07:39:21.069Z,75.70
2019-04-05T07:41:51.128Z,79.00
2019-04-05T07:44:21.176Z,76.90
2019-04-05T07:46:51.241Z,78.83
2019-04-05T07:49:21.298Z,88.13
2019-04-05T07:51:51.451Z,72.27
2019-04-05T07:54:21.545Z,73.83
2019-04-05T07:56:51.576Z,87.90
2019-04-05T07:59:22.141Z,81.30
2019-04-05T08:01:52.184Z,84.33
2019-04-05T08:04:22.271Z,82.90
2019-04-05T08:06:52.676Z,71.23
2019-04-05T08:09:22.720Z,67.07
2019-04-05T08:11:52.805Z,77.53
2019-04-05T08:14:23.628Z,76.80
2019-04-05T08:16:53.740Z,73.67
2019-04-05T08:19:23.788Z,69.90
2019-04-05T08:21:53.874Z,73.40
2019-04-05T08:24:23.976Z,87.53
2019-04-05T08:26:54.043Z,80.27
2019-04-05T08:29:24.369Z,80.13
2019-04-05T08:31:54.569Z,84.97
2019-04-05T08:34:24.593Z,76.87
2019-04-05T08:36:54.672Z,78.03
2019-04-05T08:39:24.761Z,82.60
2019-04-05T08:41:54.817Z,80.57
2019-04-05T08:44:24.904Z,75.67
2019-04-05T08:46:54.825Z,78.07
2019-04-05T08:49:25.258Z,79.57
2019-04-05T08:51:55.352Z,74.13
2019-04-05T08:54:32.478Z,71.73
2019-04-05T08:56:57.583Z,77.90
2019-04-05T08:59:28.616Z,72.30
2019-04-05T09:01:58.681Z,65.47
2019-04-05T09:04:28.753Z,71.90
2019-04-05T09:06:58.853Z,71.17
2019-04-05T09:09:28.913Z,69.13
2019-04-05T09:11:58.987Z,71.50
2019-04-05T09:14:29.012Z,73.73
2019-04-05T09:16:59.105Z,72.73
2019-04-05T09:19:29.171Z,81.77
2019-04-05T09:21:59.293Z,67.67
2019-04-05T09:24:29.366Z,75.73
2019-04-05T09:26:59.607Z,71.90
2019-04-05T09:29:29.679Z,74.97
2019-04-05T09:31:59.815Z,79.77
2019-04-05T09:34:29.889Z,82.77
2019-04-05T09:36:59.963Z,80.00
2019-04-05T09:39:30.072Z,83.27
2019-04-05T09:42:00.170Z,78.90
2019-04-05T09:44:30.382Z,73.70
2019-04-05T09:47:00.516Z,69.93
2019-04-05T09:49:36.577Z,75.97
2019-04-05T09:52:02.372Z,75.03
2019-04-05T09:54:32.446Z,71.53
2019-04-05T09:57:02.573Z,78.33
2019-04-05T09:59:32.644Z,75.37
2019-04-05T10:02:02.766Z,83.20
2019-04-05T10:04:32.827Z,77.83
2019-04-05T10:07:03.418Z,77.93
2019-04-05T10:09:33.500Z,79.40
2019-04-05T10:12:04.129Z,78.83
2019-04-05T10:14:34.863Z,76.80
2019-04-05T10:17:04.938Z,80.33
2019-04-05T10:19:35.051Z,83.27
2019-04-05T10:22:05.131Z,75.90
2019-04-05T10:24:35.215Z,75.70
2019-04-05T10:27:05.380Z,74.83
2019-04-05T10:29:35.521Z,71.83
2019-04-05T10:32:05.635Z,75.03
2019-04-05T10:34:35.695Z,73.30
2019-04-05T10:37:05.761Z,75.37
2019-04-05T10:39:36.288Z,75.03
2019-04-05T10:42:14.975Z,71.73
2019-04-05T10:44:45.129Z,69.37
2019-04-05T10:47:15.283Z,79.30
2019-04-05T10:49:45.372Z,74.37
2019-04-05T10:52:15.437Z,74.47
2019-04-05T10:54:45.571Z,66.50
2019-04-05T10:57:15.641Z,71.93
2019-04-05T10:59:45.765Z,69.20
2019-04-05T11:02:16.037Z,67.00
2019-04-05T11:04:46.169Z,77.07
2019-04-05T11:07:16.297Z,72.43
2019-04-05T11:09:46.367Z,74.67
2019-04-05T11:12:16.415Z,70.00
2019-04-05T11:14:46.540Z,68.27
2019-04-05T11:17:16.625Z,75.17
2019-04-05T11:19:46.699Z,74.37
2019-04-05T11:22:20.227Z,79.20
2019-04-05T11:24:48.593Z,80.30
2019-04-05T11:27:18.737Z,78.40
2019-04-05T11:29:48.829Z,74.73
2019-04-05T11:32:18.882Z,80.93
2019-04-05T11:34:48.976Z,73.13
2019-04-05T11:37:19.774Z,75.07
2019-04-05T11:39:49.898Z,72.77
2019-04-05T11:42:21.669Z,70.67
2019-04-05T11:44:53.999Z,70.00
2019-04-05T11:47:24.169Z,73.93
2019-04-05T11:49:55.247Z,76.27
2019-04-05T11:52:25.472Z,75.83
2019-04-05T11:54:55.527Z,75.47
2019-04-05T11:57:25.616Z,68.10
2019-04-05T11:59:55.705Z,80.47
2019-04-05T12:02:44.701Z,67.97
2019-04-05T12:05:16.238Z,78.50
2019-04-05T12:07:46.334Z,67.10
2019-04-05T12:10:18.716Z,74.50
2019-04-05T12:12:48.225Z,73.40
2019-04-05T12:15:18.347Z,71.53
2019-04-05T12:17:48.426Z,68.47
2019-04-05T12:20:18.548Z,71.03
2019-04-05T12:22:48.614Z,70.93
2019-04-05T12:25:18.720Z,64.03
2019-04-05T12:27:48.776Z,65.97
2019-04-05T12:30:20.425Z,64.23
2019-04-05T12:32:50.523Z,65.50
2019-04-05T12:35:21.611Z,66.13
2019-04-05T12:37:55.461Z,67.23
2019-04-05T12:40:23.998Z,63.13
2019-04-05T12:42:54.049Z,62.00
2019-04-05T12:45:24.122Z,60.10
2019-04-05T12:47:54.276Z,64.80
2019-04-05T12:50:24.358Z,61.20
2019-04-05T12:52:54.691Z,59.47
2019-04-05T12:55:26.268Z,58.77
2019-04-05T12:57:56.893Z,61.83
2019-04-05T13:00:27.172Z,58.10
2019-04-05T13:02:57.431Z,60.37
2019-04-05T13:05:27.528Z,54.30
2019-04-05T13:07:57.620Z,60.17
2019-04-05T13:10:30.309Z,61.00
2019-04-05T13:12:59.492Z,61.87
2019-04-05T13:15:29.590Z,63.13
2019-04-05T13:18:01.203Z,56.43
2019-04-05T13:20:31.482Z,58.23
2019-04-05T13:23:04.280Z,59.97
2019-04-05T13:25:33.292Z,59.67
2019-04-05T13:28:12.759Z,57.67
2019-04-05T13:30:35.244Z,55.13
2019-04-05T13:33:05.344Z,57.13
2019-04-05T13:35:35.409Z,59.87
2019-04-05T13:38:05.646Z,57.00
2019-04-05T13:40:35.722Z,52.20
2019-04-05T13:43:05.821Z,56.57
2019-04-05T13:45:35.862Z,57.10
2019-04-05T13:48:08.453Z,58.53
2019-04-05T13:50:41.407Z,54.90
2019-04-05T13:53:11.459Z,55.93
2019-04-05T13:55:41.437Z,55.40
2019-04-05T13:58:12.082Z,57.27
2019-04-05T14:00:42.270Z,50.07
2019-04-05T14:03:12.346Z,55.03
2019-04-05T14:05:42.442Z,63.17
2019-04-05T14:08:12.490Z,52.57
2019-04-05T14:10:42.554Z,57.37
2019-04-05T14:13:12.622Z,57.23
2019-04-05T14:15:43.072Z,52.13
2019-04-05T14:18:15.214Z,58.87
2019-04-05T14:20:45.095Z,54.73
2019-04-05T14:23:15.174Z,59.03
2019-04-05T14:25:45.218Z,56.13
2019-04-05T14:28:15.274Z,60.43
2019-04-05T14:30:45.377Z,59.63
2019-04-05T14:33:15.469Z,53.97
2019-04-05T14:35:45.529Z,56.93
2019-04-05T14:38:15.665Z,54.40
2019-04-05T14:40:46.367Z,63.40
2019-04-05T14:43:16.436Z,62.03
2019-04-05T14:45:46.473Z,60.83
2019-04-05T14:48:16.683Z,58.93
2019-04-05T14:50:46.725Z,52.07
2019-04-05T14:53:16.843Z,54.27
2019-04-05T14:55:46.927Z,57.07
2019-04-05T14:58:19.227Z,57.40
2019-04-05T15:00:48.814Z,56.87
2019-04-05T15:03:18.864Z,60.50
2019-04-05T15:05:49.080Z,59.43
2019-04-05T15:08:20.678Z,59.83
2019-04-05T15:10:51.506Z,61.93
2019-04-05T15:13:21.703Z,65.63
2019-04-05T15:15:51.741Z,57.03
2019-04-05T15:18:24.239Z,61.90
2019-04-05T15:20:53.579Z,53.33
2019-04-05T15:23:23.657Z,55.73
2019-04-05T15:25:53.753Z,60.17
2019-04-05T15:28:24.565Z,61.00
2019-04-05T15:30:56.134Z,61.60
2019-04-05T15:33:27.729Z,73.72
2019-04-05T15:36:02.400Z,60.23
2019-04-05T15:38:31.851Z,60.60
2019-04-05T15:41:02.635Z,54.47
2019-04-05T15:43:32.704Z,62.00
2019-04-05T15:46:02.787Z,55.30
2019-04-05T15:48:32.859Z,52.87
2019-04-05T15:51:02.932Z,52.77
2019-04-05T15:53:32.995Z,53.70
2019-04-05T15:56:04.261Z,54.67
2019-04-05T15:58:34.872Z,52.33
2019-04-05T16:01:05.169Z,62.77
2019-04-05T16:03:36.952Z,61.57
2019-04-05T16:06:07.140Z,55.17
2019-04-05T16:08:37.237Z,56.97
2019-04-05T16:11:07.293Z,57.97
2019-04-05T16:13:37.323Z,58.80
2019-04-05T16:16:07.449Z,59.73
2019-04-05T16:18:37.507Z,54.97
2019-04-05T16:21:07.651Z,48.97
2019-04-05T16:23:37.737Z,86.13
2019-04-05T16:26:07.867Z,56.20
2019-04-05T16:28:40.851Z,60.80
2019-04-05T16:31:09.719Z,57.13
2019-04-05T16:33:39.853Z,53.00
2019-04-05T16:36:09.982Z,53.53
2019-04-05T16:38:41.679Z,56.07
2019-04-05T16:41:11.777Z,51.80
2019-04-05T16:43:41.859Z,47.70
2019-04-05T16:46:12.029Z,53.53
2019-04-05T16:48:42.114Z,45.97
2019-04-05T16:51:12.250Z,48.93
2019-04-05T16:53:59.961Z,61.40
2019-04-05T16:56:32.255Z,51.53
2019-04-05T16:59:02.361Z,46.03
2019-04-05T17:01:32.434Z,49.63
2019-04-05T17:04:03.124Z,47.50
2019-04-05T17:06:33.269Z,46.90
2019-04-05T17:09:05.186Z,46.43
2019-04-05T17:11:35.279Z,56.13
2019-04-05T17:14:05.561Z,51.07
2019-04-05T17:16:35.630Z,43.40
2019-04-05T17:19:05.707Z,47.53
2019-04-05T17:21:35.799Z,45.33
2019-04-05T17:24:06.366Z,45.77
2019-04-05T17:26:36.474Z,42.83
2019-04-05T17:29:06.577Z,45.07
2019-04-05T17:31:36.622Z,46.40
2019-04-05T17:34:06.688Z,45.77
2019-04-05T17:36:36.760Z,45.07
2019-04-05T17:39:08.622Z,46.87
2019-04-05T17:41:38.663Z,42.10
2019-04-05T17:44:08.742Z,44.97
2019-04-05T17:46:39.006Z,44.00
2019-04-05T17:49:09.115Z,43.67
2019-04-05T17:51:39.192Z,42.23
2019-04-05T17:54:09.321Z,43.07
2019-04-05T17:56:39.374Z,37.33
2019-04-05T17:59:09.439Z,42.30
2019-04-05T18:01:39.498Z,43.63
2019-04-05T18:04:09.621Z,38.13
2019-04-05T18:06:39.688Z,36.57
2019-04-05T18:09:09.853Z,34.73
2019-04-05T18:11:39.954Z,38.13
2019-04-05T18:14:10.169Z,36.27
2019-04-05T18:16:40.274Z,42.57
2019-04-05T18:19:10.378Z,38.13
2019-04-05T18:21:40.480Z,40.40
2019-04-05T18:24:10.586Z,43.70
2019-04-05T18:26:40.630Z,40.60
2019-04-05T18:29:10.678Z,41.53
2019-04-05T18:31:40.715Z,37.47
2019-04-05T18:34:10.771Z,38.93
2019-04-05T18:36:40.844Z,38.97
2019-04-05T18:39:11.286Z,39.53
2019-04-05T18:41:41.351Z,37.67
2019-04-05T18:44:11.455Z,37.70
2019-04-05T18:46:41.565Z,40.70
2019-04-05T18:49:11.564Z,40.73
2019-04-05T18:51:41.603Z,35.90
2019-04-05T18:54:11.723Z,40.27
2019-04-05T18:56:41.787Z,44.60
2019-04-05T18:59:11.862Z,38.07
2019-04-05T19:01:43.970Z,40.13
2019-04-05T19:04:14.038Z,36.23
2019-04-05T19:06:44.133Z,41.67
2019-04-05T19:09:14.313Z,37.27
2019-04-05T19:11:44.405Z,39.63
2019-04-05T19:14:14.474Z,41.80
2019-04-05T19:16:44.584Z,39.37
2019-04-05T19:19:17.537Z,46.53
2019-04-05T19:21:46.392Z,41.67
2019-04-05T19:24:16.447Z,44.23
2019-04-05T19:26:46.510Z,38.83
2019-04-05T19:29:16.601Z,40.67
2019-04-05T19:49:29.176Z,42.03
2019-04-05T19:51:59.249Z,45.70
2019-04-05T19:54:29.317Z,36.67
2019-04-05T19:56:59.494Z,41.17
2019-04-05T19:59:29.521Z,37.07
2019-04-05T20:01:59.655Z,39.10
2019-04-05T20:04:29.668Z,41.47
2019-04-05T20:06:59.840Z,38.27
2019-04-05T20:09:29.873Z,40.37
2019-04-05T20:11:59.972Z,41.97
2019-04-05T20:14:29.980Z,42.83
2019-04-05T20:17:00.073Z,42.30
2019-04-05T20:19:30.107Z,38.87
2019-04-05T20:22:00.189Z,43.10
2019-04-05T20:24:30.244Z,41.30
2019-04-05T20:27:00.394Z,39.87
2019-04-05T20:29:30.476Z,43.33
2019-04-05T20:32:00.544Z,43.23
2019-04-05T20:34:30.614Z,39.43
2019-04-05T20:37:00.720Z,41.67
2019-04-05T20:39:30.756Z,42.97
2019-04-05T20:42:03.076Z,45.33
2019-04-05T20:44:33.159Z,42.10
2019-04-05T20:47:03.255Z,46.77
2019-04-05T20:49:33.312Z,46.83
2019-04-05T20:52:03.424Z,44.13
2019-04-05T20:54:33.474Z,45.60
2019-04-05T20:57:03.553Z,40.87
2019-04-05T20:59:33.697Z,43.90
2019-04-05T21:02:03.744Z,44.97
2019-04-05T21:04:33.785Z,45.23
2019-04-05T21:07:03.845Z,40.73
2019-04-05T21:09:33.993Z,44.00
2019-04-05T21:12:04.014Z,44.60
2019-04-05T21:14:34.105Z,44.30
2019-04-05T21:17:04.173Z,44.10
2019-04-05T21:19:34.203Z,45.00
2019-04-05T21:22:04.400Z,44.50
2019-04-05T21:24:36.404Z,43.33
2019-04-05T21:27:06.583Z,41.07
2019-04-05T21:29:36.884Z,43.33
2019-04-05T21:32:07.025Z,43.13
2019-04-05T21:34:37.638Z,46.00
2019-04-05T21:37:07.730Z,46.83
2019-04-05T21:39:37.842Z,45.37
2019-04-05T21:42:08.053Z,49.80
2019-04-05T21:44:38.278Z,50.33
2019-04-05T21:47:08.625Z,60.63
2019-04-05T21:49:38.818Z,51.23
2019-04-05T21:52:09.048Z,47.97
2019-04-05T21:54:47.478Z,47.63
2019-04-05T21:57:11.088Z,44.80
2019-04-05T21:59:41.283Z,39.97
2019-04-05T22:02:11.443Z,48.77
2019-04-05T22:04:41.522Z,45.00
2019-04-05T22:07:11.642Z,50.03
2019-04-05T22:09:41.779Z,45.73
2019-04-05T22:12:12.481Z,41.23
2019-04-05T22:14:42.669Z,47.43
2019-04-05T22:17:12.691Z,46.93
2019-04-05T22:19:43.222Z,45.77
2019-04-05T22:22:13.338Z,46.10
2019-04-05T22:24:43.449Z,45.83
2019-04-05T22:27:13.477Z,42.37
2019-04-05T22:29:43.675Z,46.27
2019-04-05T22:32:13.753Z,45.13
2019-04-05T22:34:43.880Z,46.50
2019-04-05T22:37:13.949Z,45.63
2019-04-05T22:39:44.066Z,44.03
2019-04-05T22:42:14.131Z,51.37
2019-04-05T22:44:44.250Z,45.67
2019-04-05T22:47:14.336Z,44.23
2019-04-05T22:49:44.535Z,45.23
2019-04-05T22:52:14.602Z,47.40
2019-04-05T22:54:44.694Z,45.47
2019-04-05T22:57:14.783Z,47.27
2019-04-05T22:59:44.841Z,53.13
2019-04-05T23:02:14.950Z,46.17
2019-04-05T23:04:44.970Z,52.47
2019-04-05T23:07:15.161Z,42.27
2019-04-05T23:09:45.234Z,43.40
2019-04-05T23:12:15.317Z,40.90
2019-04-05T23:14:45.359Z,46.07
2019-04-05T23:17:15.471Z,43.40
2019-04-05T23:19:47.713Z,47.73
2019-04-05T23:22:17.330Z,44.13
2019-04-05T23:24:47.341Z,43.13
2019-04-05T23:27:17.533Z,45.03
2019-04-05T23:29:47.596Z,45.73
2019-04-05T23:32:17.706Z,42.83
2019-04-05T23:34:47.733Z,48.03
2019-04-05T23:37:17.829Z,54.43
2019-04-05T23:39:47.928Z,43.33
2019-04-05T23:42:18.014Z,50.83
2019-04-05T23:44:48.084Z,49.17
2019-04-05T23:47:18.160Z,52.37
2019-04-05T23:49:48.232Z,46.47
2019-04-05T23:52:18.315Z,46.93
2019-04-05T23:54:48.355Z,48.63
2019-04-05T23:57:18.437Z,48.70
2019-04-05T23:59:48.480Z,54.20
